CLT weather

Charlotte Douglas International Airport
Charlotte, North Carolina, United States

Public forecast

Using degrees Fahrenheit for public forecast. Weather courtesy of forecast.io.

Current aviation weather report (METAR) for Charlotte Douglas International Airport

Retrieved 2020/04/04 01:52 UTC (28 minutes ago):

KCLT 040152Z 32003KT 10SM CLR 16/M01 A2993 RMK AO2 SLP131 T01611011

Aviation forecast (TAF) for Charlotte Douglas International Airport

Retrieved 2020-04-04 00:22 UTC (2 hours ago):

TAF KCLT 032320Z 0400/0506 32004KT P6SM FEW150 FM040500 01004KT P6SM FEW120 FM041500 02005KT P6SM SCT100 FM050000 11004KT P6SM SCT070